Terminal Aerodrome Forecast
Issued by NWS Albuquerque, NM

Home | Current Version | Previous Version | Text Only | Print | Product List | Glossary On
Versions: 1 2 3 4 5 6 7 8 9 10 11 12 13 14 15 16
178
FTUS45 KABQ 231742
TAFABQ
TAF
KABQ 231742Z 2318/2418 15006KT P6SM SCT070 SCT150
     FM232000 25008KT P6SM SCT080
     FM240000 18010KT P6SM VCTS BKN080CB
     FM240200 11014KT P6SM VCSH BKN100
     FM240600 VRB05KT P6SM FEW070 BKN120=

USA.gov is the U.S. government's official web portal to all federal, state and local government web resources and services.